Time;durP1;ratioP1;P1;durP2;ratioP2;P2;SDS_P1;SDS_P2;PMS_P1;PMS_P2;Temp;Humidity;BMP_temperature;BMP_pressure;BME280_temperature;BME280_humidity;BME280_pressure;Samples;Min_cycle;Max_cycle;Signal;HPM_P1;HPM_P2
2022/04/09 21:29:39;;;;;;;14.55;9.40;;;231.30;1817.60;;;;;;4823313;29;20106;-62
2022/04/09 21:32:05;;;;;;;16.63;9.23;;;231.20;1843.20;;;;;;4850272;29;20041;-62
2022/04/09 21:34:31;;;;;;;20.25;10.65;;;256.00;1817.60;;;;;;4851662;29;20540;-63
2022/04/09 21:36:57;;;;;;;17.80;11.13;;;231.30;1868.80;;;;;;4853179;29;20044;-63
2022/04/09 21:39:23;;;;;;;13.40;9.75;;;231.30;1843.20;;;;;;4852618;29;20030;-64
2022/04/09 21:41:48;;;;;;;15.40;9.88;;;231.30;1817.60;;;;;;4851564;29;20361;-62
2022/04/09 21:44:14;;;;;;;12.65;8.52;;;231.20;1843.20;;;;;;4853324;29;20040;-62
2022/04/09 21:46:40;;;;;;;11.82;7.53;;;231.20;1792.00;;;;;;4856732;29;20037;-62
2022/04/09 21:49:07;;;;;;;13.57;7.22;;;231.30;1792.00;;;;;;4853582;29;20105;-62
2022/04/09 21:51:33;;;;;;;9.38;6.93;;;231.20;1792.00;;;;;;4860464;29;20084;-63
2022/04/09 21:53:59;;;;;;;10.80;7.80;;;231.30;1792.00;;;;;;4842583;29;20488;-62
2022/04/09 21:56:45;;;;;;;14.32;7.82;;;231.30;1817.60;;;;;;4843398;29;20496;-63
2022/04/09 21:59:10;;;;;;;13.20;8.73;;;231.20;1817.60;;;;;;4789150;29;20054;-62
2022/04/09 22:01:36;;;;;;;16.38;9.73;;;231.30;1817.60;;;;;;4786913;29;20043;-63
2022/04/09 22:04:02;;;;;;;16.80;9.82;;;231.20;1868.80;;;;;;4791462;29;20085;-62
2022/04/09 22:06:30;;;;;;;11.55;8.25;;;231.30;1868.80;;;;;;4804487;29;20038;-62
2022/04/09 22:08:57;;;;;;;10.70;8.45;;;256.00;1843.20;;;;;;4804069;29;20042;-62
2022/04/09 22:11:23;;;;;;;10.93;7.90;;;231.30;1894.40;;;;;;4779988;29;20046;-63
2022/04/09 22:13:49;;;;;;;11.45;7.75;;;231.30;1920.00;;;;;;4798380;29;20402;-62
2022/04/09 22:16:15;;;;;;;14.68;8.80;;;256.00;1894.40;;;;;;4794808;29;20080;-62
2022/04/09 22:18:40;;;;;;;13.23;8.02;;;231.30;1971.20;;;;;;4788179;29;20529;-62
2022/04/09 22:21:07;;;;;;;12.02;8.00;;;231.30;2022.40;;;;;;4795191;29;20038;-62
2022/04/09 22:23:32;;;;;;;9.40;7.43;;;256.00;2022.40;;;;;;4804480;29;20558;-62
2022/04/09 22:26:01;;;;;;;13.85;7.57;;;256.00;1996.80;;;;;;4797434;29;20035;-62
2022/04/09 22:28:27;;;;;;;9.43;6.30;;;256.00;2073.60;;;;;;4797618;29;20111;-62
2022/04/09 22:30:53;;;;;;;9.30;5.65;;;256.00;2073.60;;;;;;4795221;29;20497;-62
2022/04/09 22:33:18;;;;;;;8.27;5.88;;;231.30;2099.20;;;;;;4792962;29;20118;-62
2022/04/09 22:35:44;;;;;;;5.82;4.32;;;256.00;2124.80;;;;;;4805679;29;20472;-62
2022/04/09 22:38:10;;;;;;;5.70;4.45;;;256.00;2124.80;;;;;;4834245;29;20041;-62
2022/04/09 22:40:35;;;;;;;7.50;4.82;;;256.00;2150.40;;;;;;4839379;29;20066;-62
2022/04/09 22:43:01;;;;;;;7.20;4.90;;;256.00;2150.40;;;;;;4843338;29;20034;-62
2022/04/09 22:45:27;;;;;;;9.40;4.82;;;256.00;2150.40;;;;;;4842779;29;20055;-62
2022/04/09 22:47:53;;;;;;;8.95;5.70;;;256.00;2150.40;;;;;;4835735;29;20037;-62
2022/04/09 22:50:19;;;;;;;9.55;6.28;;;231.30;2150.40;;;;;;4834181;29;20429;-62
2022/04/09 22:52:44;;;;;;;10.18;6.85;;;231.30;2176.00;;;;;;4827171;29;20034;-62
2022/04/09 22:55:10;;;;;;;10.57;7.75;;;231.20;2176.00;;;;;;4834616;29;20062;-62
2022/04/09 22:57:36;;;;;;;10.38;6.78;;;231.30;2201.60;;;;;;4806386;29;20067;-62
2022/04/09 23:00:06;;;;;;;16.20;9.27;;;231.30;2201.60;;;;;;4820597;29;20393;-62
2022/04/09 23:02:31;;;;;;;18.38;7.57;;;231.20;2201.60;;;;;;4822810;29;20453;-62
2022/04/09 23:04:57;;;;;;;13.50;7.38;;;256.00;2124.80;;;;;;4825708;29;20052;-63
2022/04/09 23:07:23;;;;;;;10.10;6.47;;;256.00;2176.00;;;;;;4828078;29;20026;-63
2022/04/09 23:09:49;;;;;;;9.65;7.53;;;256.10;2176.00;;;;;;4828132;29;20038;-63
2022/04/09 23:12:15;;;;;;;8.23;5.95;;;256.10;2176.00;;;;;;4827848;29;20031;-62
2022/04/09 23:14:41;;;;;;;8.20;6.25;;;256.00;2227.20;;;;;;4827889;29;20054;-62
2022/04/09 23:17:07;;;;;;;10.15;7.13;;;256.00;2201.60;;;;;;4827729;29;20045;-63
2022/04/09 23:19:33;;;;;;;13.95;8.55;;;256.10;2176.00;;;;;;4827952;29;20034;-62
2022/04/09 23:21:59;;;;;;;9.85;7.18;;;231.30;2252.80;;;;;;4827873;29;20034;-63
2022/04/09 23:24:25;;;;;;;8.18;6.20;;;256.00;2252.80;;;;;;4827760;29;20087;-62
2022/04/09 23:26:50;;;;;;;10.65;7.68;;;256.00;2201.60;;;;;;4827720;29;20037;-62
2022/04/09 23:29:16;;;;;;;7.43;6.15;;;256.00;2252.80;;;;;;4828846;29;20030;-62
2022/04/09 23:31:42;;;;;;;8.38;5.85;;;256.00;2252.80;;;;;;4846014;29;20102;-63
2022/04/09 23:34:08;;;;;;;5.80;5.13;;;256.00;2176.00;;;;;;4845870;29;20079;-62
2022/04/09 23:36:34;;;;;;;5.78;5.18;;;231.30;2227.20;;;;;;4845960;29;20038;-62
2022/04/09 23:39:00;;;;;;;6.28;5.25;;;231.30;2201.60;;;;;;4846479;29;20334;-62
2022/04/09 23:41:26;;;;;;;5.55;4.75;;;256.00;2176.00;;;;;;4845795;29;20433;-62
2022/04/09 23:43:52;;;;;;;6.40;4.93;;;231.20;2150.40;;;;;;4845565;29;20034;-63
2022/04/09 23:46:18;;;;;;;7.13;5.35;;;231.10;2176.00;;;;;;4845648;29;20056;-62
2022/04/09 23:48:44;;;;;;;8.48;5.40;;;231.20;2124.80;;;;;;4845600;29;20495;-62
2022/04/09 23:51:09;;;;;;;9.02;6.68;;;231.20;2124.80;;;;;;4845783;29;20030;-62
2022/04/09 23:53:36;;;;;;;7.50;5.90;;;231.10;2176.00;;;;;;4845701;29;20392;-62
2022/04/09 23:56:02;;;;;;;7.50;5.72;;;231.10;2150.40;;;;;;4845439;29;20584;-63
2022/04/09 23:58:28;;;;;;;8.45;5.97;;;231.10;2073.60;;;;;;4845407;29;20034;-62
